Rotherhithe, United Kingdom
Current Conditions -  °F | °C
As of 2:20 PM on Thursday 23 Oct 2014 (Local Time) from EGLC Reporting Station
Scattered Clouds Scattered Clouds  
Wind Chill: 63°   Ceiling: Unl
Heat Index: 63°   Visibility: 6mi
Dew Point: 52°   Wind: 12mph
Humidity: 68%   Direction: 220°SW
Pressure: 30.09"   Gusts: NA
Location:  51.49°N, 0.05°W
Report Text: EGLC 231320Z 22010KT 9999 FEW020 SCT030 17/11 Q1019
Loading
Personal Weather Stations






























Interactive Weather Map
Tropical Storm Tracking
New forecast layout! Learn more

10-Day Weather Forecast

Advertisements
Track Severe Weather on mobile